createdAt,value
2023-03-26T00:00:41.153Z,993.23
2023-03-26T00:01:41.155Z,993.24
2023-03-26T00:02:41.305Z,993.27
2023-03-26T00:03:41.096Z,993.27
2023-03-26T00:04:41.142Z,993.27
2023-03-26T00:05:41.122Z,993.33
2023-03-26T00:06:41.106Z,993.27
2023-03-26T00:07:41.057Z,993.26
2023-03-26T00:08:41.049Z,993.26
2023-03-26T00:09:41.056Z,993.22
2023-03-26T00:10:41.054Z,993.27
2023-03-26T00:11:41.034Z,993.30
2023-03-26T00:12:41.020Z,993.28
2023-03-26T00:13:41.021Z,993.30
2023-03-26T00:14:40.983Z,993.30
2023-03-26T00:15:40.969Z,993.30
2023-03-26T00:16:41.024Z,993.32
2023-03-26T00:17:41.002Z,993.28
2023-03-26T00:18:40.937Z,993.29
2023-03-26T00:19:40.940Z,993.29
2023-03-26T00:20:40.934Z,993.28
2023-03-26T00:21:40.904Z,993.28
2023-03-26T00:22:40.943Z,993.27
2023-03-26T00:23:40.892Z,993.32
2023-03-26T00:24:40.877Z,993.30
2023-03-26T00:25:40.868Z,993.30
2023-03-26T00:26:40.858Z,993.34
2023-03-26T00:27:40.870Z,993.31
2023-03-26T00:28:40.859Z,993.30
2023-03-26T00:29:40.822Z,993.34
2023-03-26T00:30:40.873Z,993.29
2023-03-26T00:31:40.797Z,993.31
2023-03-26T00:32:40.818Z,993.32
2023-03-26T00:33:40.899Z,993.30
2023-03-26T00:34:40.794Z,993.28
2023-03-26T00:35:40.781Z,993.23
2023-03-26T00:36:40.771Z,993.23
2023-03-26T00:37:40.741Z,993.23
2023-03-26T00:38:40.730Z,993.20
2023-03-26T00:39:40.740Z,993.22
2023-03-26T00:40:40.734Z,993.22
2023-03-26T00:41:40.704Z,993.26
2023-03-26T00:42:40.803Z,993.23
2023-03-26T00:43:40.685Z,993.22
2023-03-26T00:44:40.664Z,993.23
2023-03-26T00:45:40.654Z,993.23
2023-03-26T00:46:40.847Z,993.22
2023-03-26T00:47:40.665Z,993.17
2023-03-26T00:48:44.915Z,993.16
2023-03-26T00:49:40.625Z,993.19
2023-03-26T00:50:40.599Z,993.08
2023-03-26T00:51:40.586Z,993.06
2023-03-26T00:52:40.600Z,993.05
2023-03-26T00:53:40.569Z,993.08
2023-03-26T00:54:40.573Z,993.05
2023-03-26T00:55:40.582Z,993.08
2023-03-26T00:56:40.557Z,993.06
2023-03-26T00:57:40.612Z,993.02
2023-03-26T00:58:40.551Z,993.03
2023-03-26T00:59:40.528Z,993.00
2023-03-26T01:00:40.522Z,992.97
2023-03-26T01:01:40.567Z,993.03
2023-03-26T01:02:40.519Z,992.94
2023-03-26T01:03:40.599Z,992.96
2023-03-26T01:04:40.645Z,992.90
2023-03-26T01:05:40.444Z,992.93
2023-03-26T01:06:40.445Z,992.86
2023-03-26T01:07:40.416Z,992.85
2023-03-26T01:08:40.425Z,992.85
2023-03-26T01:09:40.393Z,992.84
2023-03-26T01:10:40.409Z,992.89
2023-03-26T01:11:40.378Z,992.82
2023-03-26T01:12:40.398Z,992.81
2023-03-26T01:13:40.347Z,992.79
2023-03-26T01:14:40.357Z,992.78
2023-03-26T01:15:40.339Z,992.77
2023-03-26T01:16:40.343Z,992.76
2023-03-26T01:17:40.315Z,992.73
2023-03-26T01:18:40.317Z,992.73
2023-03-26T01:19:40.318Z,992.70
2023-03-26T01:20:40.273Z,992.70
2023-03-26T01:21:40.269Z,992.72
2023-03-26T01:22:40.260Z,992.71
2023-03-26T01:23:40.247Z,992.69
2023-03-26T01:24:40.264Z,992.68
2023-03-26T01:25:40.248Z,992.67
2023-03-26T01:26:40.210Z,992.65
2023-03-26T01:27:40.213Z,992.67
2023-03-26T01:28:40.208Z,992.68
2023-03-26T01:29:40.173Z,992.69
2023-03-26T01:30:40.163Z,992.70
2023-03-26T01:31:40.160Z,992.66
2023-03-26T01:32:40.279Z,992.66
2023-03-26T01:33:40.349Z,992.64
2023-03-26T01:34:40.185Z,992.68
2023-03-26T01:35:40.239Z,992.61
2023-03-26T01:36:40.101Z,992.62
2023-03-26T01:37:40.099Z,992.61
2023-03-26T01:38:40.104Z,992.63
2023-03-26T01:39:40.074Z,992.59
2023-03-26T01:40:40.099Z,992.59
2023-03-26T01:41:40.057Z,992.58
2023-03-26T01:42:40.035Z,992.54
2023-03-26T01:43:40.036Z,992.51
2023-03-26T01:44:40.025Z,992.51
2023-03-26T01:45:40.016Z,992.50
2023-03-26T01:46:40.090Z,992.53
2023-03-26T01:47:40.014Z,992.54
2023-03-26T01:48:39.977Z,992.49
2023-03-26T01:49:39.969Z,992.49
2023-03-26T01:50:39.955Z,992.50
2023-03-26T01:51:39.952Z,992.42
2023-03-26T01:52:39.949Z,992.41
2023-03-26T01:53:39.933Z,992.37
2023-03-26T01:54:39.913Z,992.38
2023-03-26T01:55:39.926Z,992.36
2023-03-26T01:56:39.927Z,992.36
2023-03-26T01:57:39.883Z,992.36
2023-03-26T01:58:39.911Z,992.27
2023-03-26T01:59:39.858Z,992.29
2023-03-26T02:00:39.850Z,992.27
2023-03-26T02:01:39.955Z,992.25
2023-03-26T02:02:40.042Z,992.30
2023-03-26T02:03:39.864Z,992.30
2023-03-26T02:04:39.835Z,992.26
2023-03-26T02:05:39.806Z,992.21
2023-03-26T02:06:39.785Z,992.20
2023-03-26T02:07:39.830Z,992.17
2023-03-26T02:08:39.769Z,992.20
2023-03-26T02:09:39.758Z,992.17
2023-03-26T02:10:39.780Z,992.20
2023-03-26T02:11:39.732Z,992.18
2023-03-26T02:12:39.744Z,992.13
2023-03-26T02:13:39.705Z,992.13
2023-03-26T02:14:39.692Z,992.07
2023-03-26T02:15:39.699Z,992.04
2023-03-26T02:16:39.730Z,992.01
2023-03-26T02:17:39.691Z,992.01
2023-03-26T02:18:39.663Z,991.96
2023-03-26T02:19:39.656Z,991.92
2023-03-26T02:20:39.630Z,991.92
2023-03-26T02:21:39.631Z,991.90
2023-03-26T02:22:39.622Z,991.91
2023-03-26T02:23:39.602Z,991.89
2023-03-26T02:24:39.588Z,991.84
2023-03-26T02:25:39.590Z,991.85
2023-03-26T02:26:39.589Z,991.82
2023-03-26T02:27:39.597Z,991.82
2023-03-26T02:28:39.551Z,991.83
2023-03-26T02:29:39.530Z,991.80
2023-03-26T02:30:39.543Z,991.78
2023-03-26T02:31:39.537Z,991.73
2023-03-26T02:32:39.549Z,991.71
2023-03-26T02:33:39.518Z,991.76
2023-03-26T02:34:39.471Z,991.70
2023-03-26T02:35:39.562Z,991.71
2023-03-26T02:36:39.578Z,991.69
2023-03-26T02:37:39.439Z,991.67
2023-03-26T02:38:39.434Z,991.67
2023-03-26T02:39:39.443Z,991.68
2023-03-26T02:40:39.402Z,991.60
2023-03-26T02:41:39.430Z,991.61
2023-03-26T02:42:39.387Z,991.55
2023-03-26T02:43:39.380Z,991.59
2023-03-26T02:44:39.380Z,991.56
2023-03-26T02:45:39.427Z,991.60
2023-03-26T02:46:39.361Z,991.56
2023-03-26T02:47:39.377Z,991.52
2023-03-26T02:48:39.335Z,991.54
2023-03-26T02:49:39.346Z,991.63
2023-03-26T02:50:39.308Z,991.59
2023-03-26T02:51:39.311Z,991.60
2023-03-26T02:52:39.281Z,991.61
2023-03-26T02:53:39.292Z,991.66
2023-03-26T02:54:39.255Z,991.64
2023-03-26T02:55:39.277Z,991.60
2023-03-26T02:56:39.277Z,991.59
2023-03-26T02:57:39.260Z,991.57
2023-03-26T02:58:39.207Z,991.49
2023-03-26T02:59:39.234Z,991.48
2023-03-26T03:00:39.221Z,991.48
2023-03-26T03:01:39.201Z,991.41
2023-03-26T03:02:39.246Z,991.41
2023-03-26T03:03:39.213Z,991.37
2023-03-26T03:04:39.164Z,991.42
2023-03-26T03:05:39.166Z,991.37
2023-03-26T03:06:39.142Z,991.35
2023-03-26T03:07:39.121Z,991.26
2023-03-26T03:08:39.115Z,991.30
2023-03-26T03:09:39.111Z,991.27
2023-03-26T03:10:39.102Z,991.25
2023-03-26T03:11:39.074Z,991.19
2023-03-26T03:12:39.062Z,991.23
2023-03-26T03:13:39.051Z,991.17
2023-03-26T03:14:39.038Z,991.19
2023-03-26T03:15:39.062Z,991.18
2023-03-26T03:16:39.141Z,991.15
2023-03-26T03:17:39.040Z,991.19
2023-03-26T03:18:39.020Z,991.15
2023-03-26T03:19:39.014Z,991.14
2023-03-26T03:20:38.982Z,991.08
2023-03-26T03:21:38.990Z,991.04
2023-03-26T03:22:39.005Z,991.07
2023-03-26T03:23:38.945Z,991.04
2023-03-26T03:24:38.955Z,991.01
2023-03-26T03:25:38.928Z,990.97
2023-03-26T03:26:38.962Z,990.94
2023-03-26T03:27:38.923Z,990.97
2023-03-26T03:28:38.896Z,990.96
2023-03-26T03:29:38.884Z,990.92
2023-03-26T03:30:38.904Z,990.95
2023-03-26T03:31:38.884Z,990.93
2023-03-26T03:32:38.907Z,990.93
2023-03-26T03:33:38.859Z,990.89
2023-03-26T03:34:38.872Z,990.91
2023-03-26T03:35:38.862Z,990.87
2023-03-26T03:36:38.834Z,990.86
2023-03-26T03:37:38.801Z,990.87
2023-03-26T03:38:38.792Z,990.86
2023-03-26T03:39:38.807Z,990.86
2023-03-26T03:40:38.766Z,990.85
2023-03-26T03:41:38.798Z,990.83
2023-03-26T03:42:38.747Z,990.84
2023-03-26T03:43:38.746Z,990.78
2023-03-26T03:44:38.723Z,990.77
2023-03-26T03:45:38.744Z,990.66
2023-03-26T03:46:38.786Z,990.70
2023-03-26T03:47:38.728Z,990.68
2023-03-26T03:48:38.703Z,990.64
2023-03-26T03:49:38.683Z,990.68
2023-03-26T03:50:38.689Z,990.65
2023-03-26T03:51:38.707Z,990.59
2023-03-26T03:52:38.647Z,990.55
2023-03-26T03:53:38.652Z,990.55
2023-03-26T03:54:38.613Z,990.50
2023-03-26T03:55:38.609Z,990.48
2023-03-26T03:56:38.609Z,990.48
2023-03-26T03:57:38.613Z,990.45
2023-03-26T03:58:38.570Z,990.46
2023-03-26T03:59:38.604Z,990.45
2023-03-26T04:00:39.553Z,990.47
2023-03-26T04:01:38.555Z,990.42
2023-03-26T04:02:38.663Z,990.42
2023-03-26T04:03:38.806Z,990.42
2023-03-26T04:04:38.572Z,990.41
2023-03-26T04:05:38.505Z,990.37
2023-03-26T04:06:38.484Z,990.34
2023-03-26T04:07:38.494Z,990.31
2023-03-26T04:08:38.499Z,990.32
2023-03-26T04:09:38.454Z,990.32
2023-03-26T04:10:38.447Z,990.30
2023-03-26T04:11:38.443Z,990.29
2023-03-26T04:12:38.432Z,990.24
2023-03-26T04:13:38.409Z,990.22
2023-03-26T04:14:38.432Z,990.19
2023-03-26T04:15:38.468Z,990.16
2023-03-26T04:16:38.389Z,990.19
2023-03-26T04:17:38.419Z,990.16
2023-03-26T04:18:38.399Z,990.13
2023-03-26T04:19:38.352Z,990.12
2023-03-26T04:20:38.390Z,990.14
2023-03-26T04:21:38.329Z,990.15
2023-03-26T04:22:38.332Z,990.09
2023-03-26T04:23:38.326Z,990.10
2023-03-26T04:24:38.346Z,990.10
2023-03-26T04:25:38.288Z,990.10
2023-03-26T04:26:38.313Z,990.13
2023-03-26T04:27:38.285Z,990.07
2023-03-26T04:28:38.255Z,990.07
2023-03-26T04:29:38.272Z,990.05
2023-03-26T04:30:38.239Z,990.03
2023-03-26T04:31:38.329Z,990.06
2023-03-26T04:32:38.331Z,990.02
2023-03-26T04:33:38.199Z,989.97
2023-03-26T04:34:38.203Z,989.93
2023-03-26T04:35:38.254Z,989.97
2023-03-26T04:36:38.185Z,989.94
2023-03-26T04:37:38.157Z,989.91
2023-03-26T04:38:38.172Z,989.92
2023-03-26T04:39:38.136Z,989.87
2023-03-26T04:40:38.140Z,989.84
2023-03-26T04:41:38.113Z,989.82
2023-03-26T04:42:38.105Z,989.83
2023-03-26T04:43:38.095Z,989.81
2023-03-26T04:44:38.128Z,989.78
2023-03-26T04:45:38.075Z,989.72
2023-03-26T04:46:38.114Z,989.73
2023-03-26T04:47:38.064Z,989.70
2023-03-26T04:48:38.054Z,989.63
2023-03-26T04:49:38.029Z,989.65
2023-03-26T04:50:38.036Z,989.72
2023-03-26T04:51:38.012Z,989.70
2023-03-26T04:52:38.150Z,989.70
2023-03-26T04:53:37.984Z,989.69
2023-03-26T04:54:37.993Z,989.64
2023-03-26T04:55:37.966Z,989.62
2023-03-26T04:56:38.058Z,989.64
2023-03-26T04:57:37.962Z,989.61
2023-03-26T04:58:37.956Z,989.55
2023-03-26T04:59:37.935Z,989.52
2023-03-26T05:00:37.917Z,989.45
2023-03-26T05:01:38.067Z,989.44
2023-03-26T05:02:37.990Z,989.43
2023-03-26T05:03:37.871Z,989.40
2023-03-26T05:04:37.904Z,989.32
2023-03-26T05:05:37.864Z,989.31
2023-03-26T05:06:37.858Z,989.24
2023-03-26T05:07:37.842Z,989.22
2023-03-26T05:08:37.871Z,989.21
2023-03-26T05:09:37.809Z,989.22
2023-03-26T05:10:37.816Z,989.15
2023-03-26T05:11:37.795Z,989.11
2023-03-26T05:12:37.778Z,989.05
2023-03-26T05:13:37.767Z,989.07
2023-03-26T05:14:37.804Z,989.03
2023-03-26T05:15:37.769Z,989.02
2023-03-26T05:16:37.748Z,989.06
2023-03-26T05:17:37.743Z,989.10
2023-03-26T05:18:37.715Z,989.14
2023-03-26T05:19:37.724Z,989.11
2023-03-26T05:20:37.719Z,989.13
2023-03-26T05:21:37.674Z,989.14
2023-03-26T05:22:38.277Z,989.16
2023-03-26T05:23:37.700Z,989.15
2023-03-26T05:24:37.659Z,989.18
2023-03-26T05:25:37.637Z,989.14
2023-03-26T05:26:37.674Z,989.16
2023-03-26T05:27:37.607Z,989.07
2023-03-26T05:28:37.617Z,989.11
2023-03-26T05:29:37.600Z,989.13
2023-03-26T05:30:37.607Z,989.07
2023-03-26T05:31:37.589Z,989.07
2023-03-26T05:32:37.688Z,989.05
2023-03-26T05:33:37.667Z,989.06
2023-03-26T05:34:37.539Z,989.01
2023-03-26T05:35:37.619Z,989.02
2023-03-26T05:36:37.539Z,988.96
2023-03-26T05:37:37.513Z,988.95
2023-03-26T05:38:37.503Z,988.90
2023-03-26T05:39:37.522Z,988.85
2023-03-26T05:40:37.634Z,988.85
2023-03-26T05:41:37.499Z,988.84
2023-03-26T05:42:37.475Z,988.89
2023-03-26T05:43:37.465Z,988.84
2023-03-26T05:44:37.450Z,988.84
2023-03-26T05:45:37.420Z,988.77
2023-03-26T05:46:37.413Z,988.77
2023-03-26T05:47:37.468Z,988.77
2023-03-26T05:48:37.393Z,988.74
2023-03-26T05:49:37.373Z,988.74
2023-03-26T05:50:37.386Z,988.70
2023-03-26T05:51:37.376Z,988.69
2023-03-26T05:52:37.345Z,988.63
2023-03-26T05:53:37.332Z,988.67
2023-03-26T05:54:37.374Z,988.62
2023-03-26T05:55:37.318Z,988.63
2023-03-26T05:56:37.630Z,988.61
2023-03-26T05:57:37.283Z,988.62
2023-03-26T05:58:37.277Z,988.61
2023-03-26T05:59:37.267Z,988.58
2023-03-26T06:00:37.275Z,988.55
2023-03-26T06:01:37.242Z,988.51
2023-03-26T06:02:37.308Z,988.53
2023-03-26T06:03:37.355Z,988.49
2023-03-26T06:04:37.265Z,988.52
2023-03-26T06:05:37.212Z,988.53
2023-03-26T06:06:37.196Z,988.49
2023-03-26T06:07:37.199Z,988.47
2023-03-26T06:08:37.188Z,988.44
2023-03-26T06:09:37.153Z,988.43
2023-03-26T06:10:37.157Z,988.40
2023-03-26T06:11:37.160Z,988.37
2023-03-26T06:12:37.146Z,988.42
2023-03-26T06:13:37.152Z,988.40
2023-03-26T06:14:37.124Z,988.36
2023-03-26T06:15:37.121Z,988.38
2023-03-26T06:16:37.239Z,988.38
2023-03-26T06:17:37.138Z,988.36
2023-03-26T06:18:37.136Z,988.31
2023-03-26T06:19:37.064Z,988.29
2023-03-26T06:20:37.064Z,988.28
2023-03-26T06:21:37.033Z,988.28
2023-03-26T06:22:37.015Z,988.24
2023-03-26T06:23:37.017Z,988.28
2023-03-26T06:24:36.996Z,988.25
2023-03-26T06:25:37.000Z,988.21
2023-03-26T06:26:36.993Z,988.21
2023-03-26T06:27:36.961Z,988.20
2023-03-26T06:28:37.140Z,988.25
2023-03-26T06:29:36.941Z,988.17
2023-03-26T06:30:36.954Z,988.21
2023-03-26T06:31:36.995Z,988.18
2023-03-26T06:32:36.972Z,988.19
2023-03-26T06:33:36.894Z,988.17
2023-03-26T06:34:36.884Z,988.17
2023-03-26T06:35:36.940Z,988.18
2023-03-26T06:36:36.866Z,988.17
2023-03-26T06:37:36.851Z,988.20
2023-03-26T06:38:36.865Z,988.19
2023-03-26T06:39:36.857Z,988.12
2023-03-26T06:40:36.824Z,988.10
2023-03-26T06:41:36.818Z,988.14
2023-03-26T06:43:09.271Z,988.10
2023-03-26T06:43:37.785Z,988.10
2023-03-26T06:44:36.816Z,988.10
2023-03-26T06:45:36.770Z,988.09
2023-03-26T06:46:36.806Z,988.10
2023-03-26T06:47:36.810Z,988.08
2023-03-26T06:48:36.859Z,988.06
2023-03-26T06:49:36.724Z,988.05
2023-03-26T06:50:36.724Z,988.03
2023-03-26T06:51:36.728Z,987.97
2023-03-26T06:52:36.696Z,988.04
2023-03-26T06:53:36.683Z,988.00
2023-03-26T06:54:36.701Z,988.00
2023-03-26T06:55:36.661Z,987.98
2023-03-26T06:56:36.694Z,987.93
2023-03-26T06:57:36.636Z,987.91
2023-03-26T06:58:36.626Z,987.96
2023-03-26T06:59:36.641Z,987.92
2023-03-26T07:00:36.620Z,987.93
2023-03-26T07:01:36.646Z,987.87
2023-03-26T07:02:36.638Z,987.91
2023-03-26T07:03:36.570Z,987.86
2023-03-26T07:04:36.582Z,987.87
2023-03-26T07:05:36.557Z,987.88
2023-03-26T07:06:36.540Z,987.81
2023-03-26T07:07:36.531Z,987.84
2023-03-26T07:08:37.542Z,987.85
2023-03-26T07:09:36.511Z,987.86
2023-03-26T07:10:36.516Z,987.80
2023-03-26T07:11:36.502Z,987.82
2023-03-26T07:12:36.485Z,987.80
2023-03-26T07:13:36.472Z,987.82
2023-03-26T07:14:36.475Z,987.74
2023-03-26T07:15:36.446Z,987.73
2023-03-26T07:16:36.478Z,987.73
2023-03-26T07:17:36.485Z,987.72
2023-03-26T07:18:36.420Z,987.68
2023-03-26T07:19:36.410Z,987.67
2023-03-26T07:20:36.484Z,987.68
2023-03-26T07:21:36.412Z,987.67
2023-03-26T07:22:36.397Z,987.66
2023-03-26T07:23:36.381Z,987.70
2023-03-26T07:24:36.383Z,987.68
2023-03-26T07:25:36.392Z,987.64
2023-03-26T07:26:36.330Z,987.63
2023-03-26T07:27:36.391Z,987.63
2023-03-26T07:28:36.316Z,987.64
2023-03-26T07:29:36.294Z,987.63
2023-03-26T07:30:36.297Z,987.62
2023-03-26T07:31:36.343Z,987.62
2023-03-26T07:32:36.297Z,987.58
2023-03-26T07:33:36.276Z,987.58
2023-03-26T07:34:36.245Z,987.54
2023-03-26T07:35:36.267Z,987.54
2023-03-26T07:36:36.260Z,987.47
2023-03-26T07:37:36.204Z,987.48
2023-03-26T07:38:36.208Z,987.49
2023-03-26T07:39:36.178Z,987.48
2023-03-26T07:40:36.248Z,987.50
2023-03-26T07:41:36.181Z,987.41
2023-03-26T07:42:36.166Z,987.39
2023-03-26T07:43:36.175Z,987.34
2023-03-26T07:44:36.138Z,987.32
2023-03-26T07:45:36.161Z,987.27
2023-03-26T07:46:36.111Z,987.25
2023-03-26T07:47:36.129Z,987.25
2023-03-26T07:48:36.121Z,987.22
2023-03-26T07:49:36.069Z,987.22
2023-03-26T07:50:36.064Z,987.21
2023-03-26T07:51:36.056Z,987.17
2023-03-26T07:52:36.070Z,987.22
2023-03-26T07:53:36.046Z,987.15
2023-03-26T07:54:36.047Z,987.18
2023-03-26T07:55:36.026Z,987.14
2023-03-26T07:56:36.141Z,987.16
2023-03-26T07:57:36.076Z,987.14
2023-03-26T07:58:35.998Z,987.10
2023-03-26T07:59:36.110Z,987.13
2023-03-26T08:00:35.968Z,987.11
2023-03-26T08:01:36.015Z,987.05
2023-03-26T08:02:35.963Z,987.10
2023-03-26T08:03:36.026Z,987.10
2023-03-26T08:04:36.090Z,987.09
2023-03-26T08:05:35.896Z,987.08
2023-03-26T08:06:35.909Z,987.06
2023-03-26T08:07:35.877Z,987.05
2023-03-26T08:08:35.914Z,987.03
2023-03-26T08:09:35.860Z,986.97
2023-03-26T08:10:35.865Z,987.00
2023-03-26T08:11:35.844Z,986.98
2023-03-26T08:12:35.841Z,986.98
2023-03-26T08:13:35.834Z,986.94
2023-03-26T08:14:35.804Z,986.94
2023-03-26T08:15:35.840Z,986.93
2023-03-26T08:16:35.786Z,986.92
2023-03-26T08:17:35.798Z,986.93
2023-03-26T08:18:35.794Z,986.93
2023-03-26T08:19:35.739Z,986.97
2023-03-26T08:20:35.759Z,986.92
2023-03-26T08:21:35.742Z,986.94
2023-03-26T08:22:35.711Z,986.92
2023-03-26T08:23:35.723Z,986.92
2023-03-26T08:24:36.762Z,986.87
2023-03-26T08:25:37.979Z,986.86
2023-03-26T08:26:35.678Z,986.87
2023-03-26T08:27:35.654Z,986.84
2023-03-26T08:28:35.675Z,986.83
2023-03-26T08:29:35.633Z,986.86
2023-03-26T08:30:35.731Z,986.86
2023-03-26T08:31:35.675Z,986.81
2023-03-26T08:32:35.625Z,986.84
2023-03-26T08:33:37.767Z,986.84
2023-03-26T08:34:35.592Z,986.80
2023-03-26T08:35:35.701Z,986.82
2023-03-26T08:36:35.632Z,986.76
2023-03-26T08:37:35.551Z,986.81
2023-03-26T08:38:35.562Z,986.86
2023-03-26T08:39:35.558Z,986.80
2023-03-26T08:40:35.568Z,986.79
2023-03-26T08:41:35.516Z,986.80
2023-03-26T08:42:35.522Z,986.78
2023-03-26T08:43:35.486Z,986.75
2023-03-26T08:44:35.516Z,986.75
2023-03-26T08:45:35.529Z,986.80
2023-03-26T08:46:35.516Z,986.80
2023-03-26T08:47:35.474Z,986.79
2023-03-26T08:48:35.436Z,986.77
2023-03-26T08:49:35.445Z,986.74
2023-03-26T08:50:35.409Z,986.71
2023-03-26T08:51:35.407Z,986.74
2023-03-26T08:52:35.431Z,986.72
2023-03-26T08:53:35.366Z,986.66
2023-03-26T08:54:35.362Z,986.68
2023-03-26T08:55:35.388Z,986.66
2023-03-26T08:56:35.394Z,986.67
2023-03-26T08:57:35.325Z,986.69
2023-03-26T08:58:35.346Z,986.67
2023-03-26T08:59:35.304Z,986.63
2023-03-26T09:00:35.305Z,986.59
2023-03-26T09:01:35.354Z,986.57
2023-03-26T09:02:35.340Z,986.57
2023-03-26T09:03:35.319Z,986.53
2023-03-26T09:04:35.259Z,986.43
2023-03-26T09:05:35.261Z,986.44
2023-03-26T09:06:35.232Z,986.46
2023-03-26T09:07:35.234Z,986.39
2023-03-26T09:08:35.234Z,986.38
2023-03-26T09:09:35.226Z,986.37
2023-03-26T09:10:35.187Z,986.40
2023-03-26T09:11:35.176Z,986.39
2023-03-26T09:12:35.166Z,986.40
2023-03-26T09:13:35.179Z,986.30
2023-03-26T09:14:35.168Z,986.36
2023-03-26T09:15:35.137Z,986.31
2023-03-26T09:16:35.180Z,986.34
2023-03-26T09:17:35.214Z,986.27
2023-03-26T09:18:35.103Z,986.34
2023-03-26T09:19:35.103Z,986.30
2023-03-26T09:20:35.146Z,986.26
2023-03-26T09:21:35.078Z,986.23
2023-03-26T09:22:35.077Z,986.18
2023-03-26T09:23:35.065Z,986.14
2023-03-26T09:24:35.052Z,986.21
2023-03-26T09:25:35.056Z,986.18
2023-03-26T09:26:35.049Z,986.15
2023-03-26T09:27:35.028Z,986.15
2023-03-26T09:28:35.010Z,986.14
2023-03-26T09:29:34.985Z,986.08
2023-03-26T09:30:35.008Z,986.03
2023-03-26T09:31:35.061Z,986.06
2023-03-26T09:32:34.997Z,986.01
2023-03-26T09:33:34.960Z,986.07
2023-03-26T09:34:34.929Z,986.05
2023-03-26T09:35:34.954Z,986.04
2023-03-26T09:36:34.936Z,986.03
2023-03-26T09:37:34.936Z,985.97
2023-03-26T09:38:34.958Z,985.97
2023-03-26T09:39:34.879Z,986.03
2023-03-26T09:40:34.915Z,985.95
2023-03-26T09:41:34.854Z,985.94
2023-03-26T09:42:34.841Z,985.93
2023-03-26T09:43:34.858Z,985.95
2023-03-26T09:44:34.839Z,985.91
2023-03-26T09:45:34.833Z,985.91
2023-03-26T09:46:34.794Z,985.86
2023-03-26T09:47:34.874Z,985.81
2023-03-26T09:48:34.789Z,985.79
2023-03-26T09:49:34.803Z,985.81
2023-03-26T09:50:34.768Z,985.81
2023-03-26T09:51:34.751Z,985.72
2023-03-26T09:52:34.753Z,985.73
2023-03-26T09:53:34.733Z,985.73
2023-03-26T09:54:34.764Z,985.69
2023-03-26T09:55:34.750Z,985.72
2023-03-26T09:56:34.721Z,985.70
2023-03-26T09:57:34.741Z,985.68
2023-03-26T09:58:34.673Z,985.65
2023-03-26T09:59:34.660Z,985.66
2023-03-26T10:00:34.659Z,985.80
2023-03-26T10:01:34.725Z,985.68
2023-03-26T10:02:45.912Z,985.73
2023-03-26T10:03:35.634Z,985.65
2023-03-26T10:04:34.642Z,985.68
2023-03-26T10:05:34.606Z,985.69
2023-03-26T10:06:34.593Z,985.65
2023-03-26T10:07:34.572Z,985.56
2023-03-26T10:08:34.620Z,985.61
2023-03-26T10:09:34.565Z,985.60
2023-03-26T10:10:34.551Z,985.56
2023-03-26T10:11:34.532Z,985.59
2023-03-26T10:12:34.673Z,985.58
2023-03-26T10:13:34.525Z,985.62
2023-03-26T10:14:34.511Z,985.60
2023-03-26T10:15:34.496Z,985.52
2023-03-26T10:16:34.514Z,985.49
2023-03-26T10:17:34.489Z,985.49
2023-03-26T10:18:34.477Z,985.51
2023-03-26T10:19:34.441Z,985.52
2023-03-26T10:20:34.428Z,985.49
2023-03-26T10:21:34.460Z,985.48
2023-03-26T10:22:34.411Z,985.45
2023-03-26T10:23:34.395Z,985.49
2023-03-26T10:24:34.400Z,985.50
2023-03-26T10:25:34.382Z,985.44
2023-03-26T10:26:34.366Z,985.45
2023-03-26T10:27:34.459Z,985.40
2023-03-26T10:28:34.361Z,985.45
2023-03-26T10:29:34.334Z,985.42
2023-03-26T10:30:34.407Z,985.44
2023-03-26T10:31:34.336Z,985.44
2023-03-26T10:32:34.309Z,985.45
2023-03-26T10:33:34.307Z,985.37
2023-03-26T10:34:34.306Z,985.35
2023-03-26T10:35:34.335Z,985.33
2023-03-26T10:36:34.296Z,985.36
2023-03-26T10:37:34.258Z,985.33
2023-03-26T10:38:34.237Z,985.32
2023-03-26T10:39:37.326Z,985.36
2023-03-26T10:40:35.211Z,985.32
2023-03-26T10:41:34.265Z,985.28
2023-03-26T10:42:34.202Z,985.36
2023-03-26T10:43:34.191Z,985.34
2023-03-26T10:44:34.181Z,985.35
2023-03-26T10:45:34.198Z,985.31
2023-03-26T10:46:34.225Z,985.32
2023-03-26T10:47:34.225Z,985.28
2023-03-26T10:48:34.128Z,985.32
2023-03-26T10:49:34.114Z,985.35
2023-03-26T10:50:34.125Z,985.29
2023-03-26T10:51:34.128Z,985.27
2023-03-26T10:52:34.080Z,985.28
2023-03-26T10:53:34.107Z,985.26
2023-03-26T10:54:34.087Z,985.20
2023-03-26T10:55:34.058Z,985.28
2023-03-26T10:56:34.060Z,985.25
2023-03-26T10:57:34.040Z,985.27
2023-03-26T10:58:49.854Z,985.22
2023-03-26T10:59:35.037Z,985.19
2023-03-26T11:00:34.014Z,985.13
2023-03-26T11:01:34.025Z,985.11
2023-03-26T11:02:34.016Z,985.09
2023-03-26T11:03:33.986Z,985.08
2023-03-26T11:04:33.955Z,985.07
2023-03-26T11:05:34.019Z,985.10
2023-03-26T11:06:33.971Z,985.02
2023-03-26T11:07:33.948Z,985.07
2023-03-26T11:08:33.939Z,985.06
2023-03-26T11:09:33.904Z,985.02
2023-03-26T11:10:33.925Z,985.02
2023-03-26T11:11:33.903Z,985.00
2023-03-26T11:12:33.876Z,984.98
2023-03-26T11:13:33.863Z,984.95
2023-03-26T11:14:35.105Z,984.93
2023-03-26T11:15:33.871Z,984.97
2023-03-26T11:16:33.872Z,984.93
2023-03-26T11:17:40.107Z,984.94
2023-03-26T11:18:34.804Z,984.84
2023-03-26T11:19:33.850Z,984.87
2023-03-26T11:20:33.812Z,984.87
2023-03-26T11:21:33.781Z,984.94
2023-03-26T11:22:33.780Z,984.93
2023-03-26T11:23:33.806Z,984.95
2023-03-26T11:24:33.792Z,984.94
2023-03-26T11:25:33.740Z,984.91
2023-03-26T11:26:33.740Z,984.91
2023-03-26T11:27:33.720Z,984.94
2023-03-26T11:28:33.698Z,984.96
2023-03-26T11:29:33.800Z,984.96
2023-03-26T11:30:33.692Z,984.94
2023-03-26T11:31:33.728Z,984.94
2023-03-26T11:32:33.704Z,984.92
2023-03-26T11:33:33.655Z,984.94
2023-03-26T11:34:33.637Z,984.95
2023-03-26T11:35:39.379Z,984.95
2023-03-26T11:36:34.612Z,984.96
2023-03-26T11:37:33.619Z,985.02
2023-03-26T11:38:33.626Z,984.93
2023-03-26T11:39:33.591Z,984.96
2023-03-26T11:40:33.580Z,984.98
2023-03-26T11:41:33.667Z,984.88
2023-03-26T11:42:33.574Z,984.92
2023-03-26T11:43:33.570Z,984.94
2023-03-26T11:44:33.570Z,984.85
2023-03-26T11:45:33.528Z,984.90
2023-03-26T11:46:33.869Z,984.83
2023-03-26T11:47:33.585Z,984.88
2023-03-26T11:48:33.571Z,984.90
2023-03-26T11:49:33.529Z,984.87
2023-03-26T11:50:33.481Z,984.95
2023-03-26T11:51:33.663Z,984.94
2023-03-26T11:52:33.488Z,984.88
2023-03-26T11:53:33.456Z,984.89
2023-03-26T11:54:33.465Z,984.94
2023-03-26T11:55:33.619Z,984.92
2023-03-26T11:56:33.511Z,985.03
2023-03-26T11:57:34.063Z,985.08
2023-03-26T11:58:33.397Z,985.15
2023-03-26T11:59:39.219Z,985.28
2023-03-26T12:00:34.362Z,985.30
2023-03-26T12:01:33.434Z,985.22
2023-03-26T12:02:33.556Z,985.24
2023-03-26T12:03:33.380Z,985.31
2023-03-26T12:04:34.069Z,985.16
2023-03-26T12:05:33.406Z,985.16
2023-03-26T12:06:33.294Z,985.18
2023-03-26T12:07:33.319Z,985.21
2023-03-26T12:08:33.292Z,985.22
2023-03-26T12:09:33.305Z,985.28
2023-03-26T12:10:33.275Z,985.25
2023-03-26T12:11:35.101Z,985.16
2023-03-26T12:12:33.295Z,985.19
2023-03-26T12:13:33.246Z,985.26
2023-03-26T12:14:33.230Z,985.30
2023-03-26T12:15:33.214Z,985.31
2023-03-26T12:16:33.219Z,985.29
2023-03-26T12:17:33.223Z,985.27
2023-03-26T12:18:33.187Z,985.21
2023-03-26T12:19:33.217Z,985.19
2023-03-26T12:20:33.174Z,985.24
2023-03-26T12:21:33.185Z,985.16
2023-03-26T12:22:33.120Z,985.09
2023-03-26T12:23:33.118Z,985.13
2023-03-26T12:24:33.111Z,985.09
2023-03-26T12:25:33.120Z,985.12
2023-03-26T12:26:33.066Z,985.10
2023-03-26T12:27:33.075Z,985.15
2023-03-26T12:28:33.052Z,985.16